sensor_id;sensor_type;location;lat;lon;timestamp;P1;durP1;ratioP1;P2;durP2;ratioP2
44078;SDS011;29744;49.078;12.878;2023-04-24T00:02:14;1.20;;;0.90;;
44078;SDS011;29744;49.078;12.878;2023-04-24T00:07:15;1.92;;;1.00;;
44078;SDS011;29744;49.078;12.878;2023-04-24T00:12:20;1.63;;;1.00;;
44078;SDS011;29744;49.078;12.878;2023-04-24T00:17:20;1.55;;;1.00;;
44078;SDS011;29744;49.078;12.878;2023-04-24T00:22:21;1.08;;;0.88;;
44078;SDS011;29744;49.078;12.878;2023-04-24T00:27:21;1.77;;;1.00;;
44078;SDS011;29744;49.078;12.878;2023-04-24T00:32:21;1.40;;;0.85;;
44078;SDS011;29744;49.078;12.878;2023-04-24T00:37:21;1.15;;;0.70;;
44078;SDS011;29744;49.078;12.878;2023-04-24T00:42:22;1.50;;;0.80;;
44078;SDS011;29744;49.078;12.878;2023-04-24T00:47:22;1.25;;;0.80;;
44078;SDS011;29744;49.078;12.878;2023-04-24T00:52:24;1.23;;;0.80;;
44078;SDS011;29744;49.078;12.878;2023-04-24T00:57:25;1.20;;;0.70;;
44078;SDS011;29744;49.078;12.878;2023-04-24T01:02:26;1.52;;;0.90;;
44078;SDS011;29744;49.078;12.878;2023-04-24T01:07:27;1.27;;;0.80;;
44078;SDS011;29744;49.078;12.878;2023-04-24T01:12:27;1.10;;;0.85;;
44078;SDS011;29744;49.078;12.878;2023-04-24T01:17:27;0.73;;;0.70;;
44078;SDS011;29744;49.078;12.878;2023-04-24T01:22:28;1.40;;;0.90;;
44078;SDS011;29744;49.078;12.878;2023-04-24T01:27:28;1.15;;;0.80;;
44078;SDS011;29744;49.078;12.878;2023-04-24T01:32:29;1.23;;;0.82;;
44078;SDS011;29744;49.078;12.878;2023-04-24T01:37:29;1.80;;;1.00;;
44078;SDS011;29744;49.078;12.878;2023-04-24T01:42:31;1.27;;;0.80;;
44078;SDS011;29744;49.078;12.878;2023-04-24T01:47:32;1.10;;;0.80;;
44078;SDS011;29744;49.078;12.878;2023-04-24T01:52:32;0.90;;;0.70;;
44078;SDS011;29744;49.078;12.878;2023-04-24T01:57:33;0.82;;;0.60;;
44078;SDS011;29744;49.078;12.878;2023-04-24T02:02:33;1.27;;;0.80;;
44078;SDS011;29744;49.078;12.878;2023-04-24T02:07:34;1.08;;;0.70;;
44078;SDS011;29744;49.078;12.878;2023-04-24T02:12:34;1.10;;;0.65;;
44078;SDS011;29744;49.078;12.878;2023-04-24T02:17:35;0.90;;;0.65;;
44078;SDS011;29744;49.078;12.878;2023-04-24T02:22:36;1.40;;;0.77;;
44078;SDS011;29744;49.078;12.878;2023-04-24T02:27:36;1.10;;;0.73;;
44078;SDS011;29744;49.078;12.878;2023-04-24T02:32:36;0.88;;;0.60;;
44078;SDS011;29744;49.078;12.878;2023-04-24T02:37:37;1.02;;;0.73;;
44078;SDS011;29744;49.078;12.878;2023-04-24T02:42:37;1.20;;;0.82;;
44078;SDS011;29744;49.078;12.878;2023-04-24T02:47:37;1.05;;;0.70;;
44078;SDS011;29744;49.078;12.878;2023-04-24T02:52:37;1.05;;;0.73;;
44078;SDS011;29744;49.078;12.878;2023-04-24T02:57:38;1.02;;;0.80;;
44078;SDS011;29744;49.078;12.878;2023-04-24T03:02:38;0.90;;;0.60;;
44078;SDS011;29744;49.078;12.878;2023-04-24T03:07:38;0.82;;;0.65;;
44078;SDS011;29744;49.078;12.878;2023-04-24T03:12:38;1.00;;;0.60;;
44078;SDS011;29744;49.078;12.878;2023-04-24T03:17:39;0.85;;;0.68;;
44078;SDS011;29744;49.078;12.878;2023-04-24T03:22:39;1.05;;;0.75;;
44078;SDS011;29744;49.078;12.878;2023-04-24T03:27:39;1.23;;;0.73;;
44078;SDS011;29744;49.078;12.878;2023-04-24T03:32:40;1.08;;;0.80;;
44078;SDS011;29744;49.078;12.878;2023-04-24T03:37:40;1.00;;;0.65;;
44078;SDS011;29744;49.078;12.878;2023-04-24T03:42:40;0.60;;;0.60;;
44078;SDS011;29744;49.078;12.878;2023-04-24T03:47:40;1.35;;;0.70;;
44078;SDS011;29744;49.078;12.878;2023-04-24T03:52:41;1.10;;;0.70;;
44078;SDS011;29744;49.078;12.878;2023-04-24T03:57:41;0.90;;;0.55;;
44078;SDS011;29744;49.078;12.878;2023-04-24T04:02:41;0.70;;;0.60;;
44078;SDS011;29744;49.078;12.878;2023-04-24T04:07:41;0.90;;;0.63;;
44078;SDS011;29744;49.078;12.878;2023-04-24T04:12:42;0.95;;;0.70;;
44078;SDS011;29744;49.078;12.878;2023-04-24T04:17:42;1.15;;;0.60;;
44078;SDS011;29744;49.078;12.878;2023-04-24T04:22:42;0.75;;;0.50;;
44078;SDS011;29744;49.078;12.878;2023-04-24T04:27:42;1.13;;;0.60;;
44078;SDS011;29744;49.078;12.878;2023-04-24T04:32:43;1.17;;;0.70;;
44078;SDS011;29744;49.078;12.878;2023-04-24T04:37:43;1.15;;;0.75;;
44078;SDS011;29744;49.078;12.878;2023-04-24T04:42:44;0.70;;;0.60;;
44078;SDS011;29744;49.078;12.878;2023-04-24T04:47:46;0.50;;;0.50;;
44078;SDS011;29744;49.078;12.878;2023-04-24T04:52:46;1.00;;;0.65;;
44078;SDS011;29744;49.078;12.878;2023-04-24T04:57:46;0.70;;;0.60;;
44078;SDS011;29744;49.078;12.878;2023-04-24T05:02:47;1.17;;;0.68;;
44078;SDS011;29744;49.078;12.878;2023-04-24T05:07:47;0.90;;;0.70;;
44078;SDS011;29744;49.078;12.878;2023-04-24T05:12:47;0.70;;;0.55;;
44078;SDS011;29744;49.078;12.878;2023-04-24T05:17:49;0.50;;;0.50;;
44078;SDS011;29744;49.078;12.878;2023-04-24T05:22:49;0.50;;;0.50;;
44078;SDS011;29744;49.078;12.878;2023-04-24T05:27:50;0.73;;;0.60;;
44078;SDS011;29744;49.078;12.878;2023-04-24T05:32:50;0.73;;;0.60;;
44078;SDS011;29744;49.078;12.878;2023-04-24T05:37:50;0.65;;;0.50;;
44078;SDS011;29744;49.078;12.878;2023-04-24T05:42:51;0.65;;;0.40;;
44078;SDS011;29744;49.078;12.878;2023-04-24T05:47:51;0.85;;;0.57;;
44078;SDS011;29744;49.078;12.878;2023-04-24T05:52:52;0.70;;;0.50;;
44078;SDS011;29744;49.078;12.878;2023-04-24T05:57:53;0.60;;;0.57;;
44078;SDS011;29744;49.078;12.878;2023-04-24T06:02:54;1.05;;;0.60;;
44078;SDS011;29744;49.078;12.878;2023-04-24T06:07:54;0.60;;;0.45;;
44078;SDS011;29744;49.078;12.878;2023-04-24T06:12:54;0.88;;;0.63;;
44078;SDS011;29744;49.078;12.878;2023-04-24T06:18:00;0.93;;;0.60;;
44078;SDS011;29744;49.078;12.878;2023-04-24T06:23:00;1.17;;;0.70;;
44078;SDS011;29744;49.078;12.878;2023-04-24T06:28:00;0.70;;;0.60;;
44078;SDS011;29744;49.078;12.878;2023-04-24T06:33:01;0.60;;;0.60;;
44078;SDS011;29744;49.078;12.878;2023-04-24T06:38:02;1.10;;;0.63;;
44078;SDS011;29744;49.078;12.878;2023-04-24T06:43:02;0.90;;;0.55;;
44078;SDS011;29744;49.078;12.878;2023-04-24T06:48:02;0.60;;;0.50;;
44078;SDS011;29744;49.078;12.878;2023-04-24T06:53:03;0.82;;;0.60;;
44078;SDS011;29744;49.078;12.878;2023-04-24T06:58:03;0.85;;;0.57;;
44078;SDS011;29744;49.078;12.878;2023-04-24T07:03:04;2.50;;;0.98;;
44078;SDS011;29744;49.078;12.878;2023-04-24T07:08:07;3.75;;;0.90;;
44078;SDS011;29744;49.078;12.878;2023-04-24T07:13:07;2.10;;;0.90;;
44078;SDS011;29744;49.078;12.878;2023-04-24T07:18:08;2.58;;;1.20;;
44078;SDS011;29744;49.078;12.878;2023-04-24T07:23:08;2.72;;;1.10;;
44078;SDS011;29744;49.078;12.878;2023-04-24T07:28:09;1.77;;;0.98;;
44078;SDS011;29744;49.078;12.878;2023-04-24T07:33:09;1.80;;;1.10;;
44078;SDS011;29744;49.078;12.878;2023-04-24T07:38:12;1.30;;;0.90;;
44078;SDS011;29744;49.078;12.878;2023-04-24T07:43:13;2.35;;;1.10;;
44078;SDS011;29744;49.078;12.878;2023-04-24T07:48:13;1.98;;;1.08;;
44078;SDS011;29744;49.078;12.878;2023-04-24T07:53:16;1.35;;;0.95;;
44078;SDS011;29744;49.078;12.878;2023-04-24T07:58:16;2.50;;;1.15;;
44078;SDS011;29744;49.078;12.878;2023-04-24T08:03:16;2.03;;;1.10;;
44078;SDS011;29744;49.078;12.878;2023-04-24T08:08:20;1.30;;;1.00;;
44078;SDS011;29744;49.078;12.878;2023-04-24T08:13:21;1.75;;;0.90;;
44078;SDS011;29744;49.078;12.878;2023-04-24T08:18:24;1.83;;;1.10;;
44078;SDS011;29744;49.078;12.878;2023-04-24T08:23:25;2.05;;;1.02;;
44078;SDS011;29744;49.078;12.878;2023-04-24T08:28:25;2.22;;;1.23;;
44078;SDS011;29744;49.078;12.878;2023-04-24T08:33:25;1.88;;;1.10;;
44078;SDS011;29744;49.078;12.878;2023-04-24T08:38:26;2.08;;;1.00;;
44078;SDS011;29744;49.078;12.878;2023-04-24T08:43:26;2.30;;;1.10;;
44078;SDS011;29744;49.078;12.878;2023-04-24T08:48:27;2.38;;;1.00;;
44078;SDS011;29744;49.078;12.878;2023-04-24T08:53:28;2.83;;;1.15;;
44078;SDS011;29744;49.078;12.878;2023-04-24T08:58:28;2.05;;;1.23;;
44078;SDS011;29744;49.078;12.878;2023-04-24T09:03:29;2.90;;;1.48;;
44078;SDS011;29744;49.078;12.878;2023-04-24T09:08:31;1.83;;;1.13;;
44078;SDS011;29744;49.078;12.878;2023-04-24T09:13:32;2.28;;;1.20;;
44078;SDS011;29744;49.078;12.878;2023-04-24T09:18:33;1.85;;;1.05;;
44078;SDS011;29744;49.078;12.878;2023-04-24T09:23:35;1.08;;;0.90;;
44078;SDS011;29744;49.078;12.878;2023-04-24T09:28:36;1.38;;;0.98;;
44078;SDS011;29744;49.078;12.878;2023-04-24T09:33:38;1.55;;;1.08;;
44078;SDS011;29744;49.078;12.878;2023-04-24T09:38:38;2.33;;;1.10;;
44078;SDS011;29744;49.078;12.878;2023-04-24T09:43:39;1.77;;;1.10;;
44078;SDS011;29744;49.078;12.878;2023-04-24T09:48:39;1.20;;;1.00;;
44078;SDS011;29744;49.078;12.878;2023-04-24T09:53:39;1.23;;;0.98;;
44078;SDS011;29744;49.078;12.878;2023-04-24T09:58:45;1.20;;;1.10;;
44078;SDS011;29744;49.078;12.878;2023-04-24T10:03:46;1.38;;;0.98;;
44078;SDS011;29744;49.078;12.878;2023-04-24T10:08:46;1.92;;;1.00;;
44078;SDS011;29744;49.078;12.878;2023-04-24T10:13:48;3.33;;;1.10;;
44078;SDS011;29744;49.078;12.878;2023-04-24T10:18:48;3.92;;;1.02;;
44078;SDS011;29744;49.078;12.878;2023-04-24T10:23:49;3.85;;;1.15;;
44078;SDS011;29744;49.078;12.878;2023-04-24T10:28:50;2.35;;;1.02;;
44078;SDS011;29744;49.078;12.878;2023-04-24T10:33:52;2.28;;;1.13;;
44078;SDS011;29744;49.078;12.878;2023-04-24T10:38:54;1.52;;;0.95;;
44078;SDS011;29744;49.078;12.878;2023-04-24T10:44:09;2.33;;;1.27;;
44078;SDS011;29744;49.078;12.878;2023-04-24T10:49:10;1.55;;;1.10;;
44078;SDS011;29744;49.078;12.878;2023-04-24T10:54:23;3.20;;;1.10;;
44078;SDS011;29744;49.078;12.878;2023-04-24T10:59:28;1.80;;;0.90;;
44078;SDS011;29744;49.078;12.878;2023-04-24T11:04:35;1.45;;;0.95;;
44078;SDS011;29744;49.078;12.878;2023-04-24T11:09:36;1.55;;;1.00;;
44078;SDS011;29744;49.078;12.878;2023-04-24T11:20:00;1.80;;;0.90;;
44078;SDS011;29744;49.078;12.878;2023-04-24T11:25:02;1.33;;;0.80;;
44078;SDS011;29744;49.078;12.878;2023-04-24T11:30:04;1.58;;;0.90;;
44078;SDS011;29744;49.078;12.878;2023-04-24T11:40:08;2.97;;;0.90;;
44078;SDS011;29744;49.078;12.878;2023-04-24T11:45:21;1.42;;;0.90;;
44078;SDS011;29744;49.078;12.878;2023-04-24T11:50:26;2.10;;;0.82;;
44078;SDS011;29744;49.078;12.878;2023-04-24T11:55:28;1.98;;;0.90;;
44078;SDS011;29744;49.078;12.878;2023-04-24T12:00:30;1.17;;;0.80;;
44078;SDS011;29744;49.078;12.878;2023-04-24T12:05:33;1.80;;;0.90;;
44078;SDS011;29744;49.078;12.878;2023-04-24T12:10:34;1.05;;;0.80;;
44078;SDS011;29744;49.078;12.878;2023-04-24T12:15:35;1.40;;;0.73;;
44078;SDS011;29744;49.078;12.878;2023-04-24T12:20:35;0.75;;;0.68;;
44078;SDS011;29744;49.078;12.878;2023-04-24T12:25:35;0.95;;;0.75;;
44078;SDS011;29744;49.078;12.878;2023-04-24T12:30:48;1.13;;;0.90;;
44078;SDS011;29744;49.078;12.878;2023-04-24T12:35:51;1.02;;;0.80;;
44078;SDS011;29744;49.078;12.878;2023-04-24T12:41:02;0.95;;;0.80;;
44078;SDS011;29744;49.078;12.878;2023-04-24T12:46:04;1.15;;;0.70;;
44078;SDS011;29744;49.078;12.878;2023-04-24T12:51:05;1.10;;;0.80;;
44078;SDS011;29744;49.078;12.878;2023-04-24T12:56:05;1.45;;;0.80;;
44078;SDS011;29744;49.078;12.878;2023-04-24T13:01:05;1.33;;;0.70;;
44078;SDS011;29744;49.078;12.878;2023-04-24T13:06:06;0.98;;;0.73;;
44078;SDS011;29744;49.078;12.878;2023-04-24T13:11:06;1.20;;;0.80;;
44078;SDS011;29744;49.078;12.878;2023-04-24T13:16:06;0.90;;;0.70;;
44078;SDS011;29744;49.078;12.878;2023-04-24T13:21:06;1.20;;;0.80;;
44078;SDS011;29744;49.078;12.878;2023-04-24T13:26:07;1.00;;;0.80;;
44078;SDS011;29744;49.078;12.878;2023-04-24T13:31:07;1.08;;;0.80;;
44078;SDS011;29744;49.078;12.878;2023-04-24T13:36:07;2.03;;;0.90;;
44078;SDS011;29744;49.078;12.878;2023-04-24T13:41:08;0.73;;;0.70;;
44078;SDS011;29744;49.078;12.878;2023-04-24T13:46:08;0.80;;;0.70;;
44078;SDS011;29744;49.078;12.878;2023-04-24T13:51:08;3.30;;;0.80;;
44078;SDS011;29744;49.078;12.878;2023-04-24T13:56:09;2.75;;;1.50;;
44078;SDS011;29744;49.078;12.878;2023-04-24T14:01:10;9.10;;;2.20;;
44078;SDS011;29744;49.078;12.878;2023-04-24T14:06:10;5.72;;;2.15;;
44078;SDS011;29744;49.078;12.878;2023-04-24T14:11:11;8.35;;;1.98;;
44078;SDS011;29744;49.078;12.878;2023-04-24T14:16:11;4.47;;;1.63;;
44078;SDS011;29744;49.078;12.878;2023-04-24T14:21:12;4.22;;;1.85;;
44078;SDS011;29744;49.078;12.878;2023-04-24T14:26:12;6.28;;;2.17;;
44078;SDS011;29744;49.078;12.878;2023-04-24T14:31:12;5.13;;;1.73;;
44078;SDS011;29744;49.078;12.878;2023-04-24T14:36:12;5.03;;;1.85;;
44078;SDS011;29744;49.078;12.878;2023-04-24T14:41:13;4.50;;;1.75;;
44078;SDS011;29744;49.078;12.878;2023-04-24T14:46:13;4.63;;;2.08;;
44078;SDS011;29744;49.078;12.878;2023-04-24T14:51:13;4.13;;;1.88;;
44078;SDS011;29744;49.078;12.878;2023-04-24T14:56:14;4.82;;;1.80;;
44078;SDS011;29744;49.078;12.878;2023-04-24T15:01:15;4.40;;;1.70;;
44078;SDS011;29744;49.078;12.878;2023-04-24T15:06:15;7.18;;;1.90;;
44078;SDS011;29744;49.078;12.878;2023-04-24T15:11:15;6.25;;;1.70;;
44078;SDS011;29744;49.078;12.878;2023-04-24T15:16:15;5.13;;;1.80;;
44078;SDS011;29744;49.078;12.878;2023-04-24T15:21:16;5.05;;;1.65;;
44078;SDS011;29744;49.078;12.878;2023-04-24T15:26:16;4.00;;;1.60;;
44078;SDS011;29744;49.078;12.878;2023-04-24T15:31:17;3.92;;;1.80;;
44078;SDS011;29744;49.078;12.878;2023-04-24T15:36:18;5.13;;;1.90;;
44078;SDS011;29744;49.078;12.878;2023-04-24T15:41:19;4.28;;;1.70;;
44078;SDS011;29744;49.078;12.878;2023-04-24T15:46:19;4.72;;;1.80;;
44078;SDS011;29744;49.078;12.878;2023-04-24T15:51:20;3.25;;;1.60;;
44078;SDS011;29744;49.078;12.878;2023-04-24T15:56:20;4.85;;;2.00;;
44078;SDS011;29744;49.078;12.878;2023-04-24T16:01:21;3.38;;;1.67;;
44078;SDS011;29744;49.078;12.878;2023-04-24T16:06:21;3.90;;;1.70;;
44078;SDS011;29744;49.078;12.878;2023-04-24T16:11:22;3.95;;;1.40;;
44078;SDS011;29744;49.078;12.878;2023-04-24T16:16:22;4.12;;;1.50;;
44078;SDS011;29744;49.078;12.878;2023-04-24T16:21:23;4.35;;;1.40;;
44078;SDS011;29744;49.078;12.878;2023-04-24T16:26:23;3.30;;;1.45;;
44078;SDS011;29744;49.078;12.878;2023-04-24T16:31:23;4.57;;;1.75;;
44078;SDS011;29744;49.078;12.878;2023-04-24T16:36:24;7.32;;;1.63;;
44078;SDS011;29744;49.078;12.878;2023-04-24T16:41:25;3.80;;;1.50;;
44078;SDS011;29744;49.078;12.878;2023-04-24T16:46:28;3.00;;;1.30;;
44078;SDS011;29744;49.078;12.878;2023-04-24T16:51:28;3.20;;;1.25;;
44078;SDS011;29744;49.078;12.878;2023-04-24T16:56:29;3.22;;;1.58;;
44078;SDS011;29744;49.078;12.878;2023-04-24T17:01:29;3.92;;;1.40;;
44078;SDS011;29744;49.078;12.878;2023-04-24T17:06:30;3.72;;;1.35;;
44078;SDS011;29744;49.078;12.878;2023-04-24T17:11:30;3.75;;;1.40;;
44078;SDS011;29744;49.078;12.878;2023-04-24T17:16:30;4.28;;;1.48;;
44078;SDS011;29744;49.078;12.878;2023-04-24T17:21:31;3.15;;;1.25;;
44078;SDS011;29744;49.078;12.878;2023-04-24T17:26:31;3.17;;;1.40;;
44078;SDS011;29744;49.078;12.878;2023-04-24T17:31:32;3.58;;;1.38;;
44078;SDS011;29744;49.078;12.878;2023-04-24T17:36:32;3.10;;;1.30;;
44078;SDS011;29744;49.078;12.878;2023-04-24T17:41:33;2.72;;;1.40;;
44078;SDS011;29744;49.078;12.878;2023-04-24T17:46:33;4.05;;;1.60;;
44078;SDS011;29744;49.078;12.878;2023-04-24T17:51:34;3.20;;;1.35;;
44078;SDS011;29744;49.078;12.878;2023-04-24T17:56:34;3.28;;;1.35;;
44078;SDS011;29744;49.078;12.878;2023-04-24T18:01:35;4.13;;;1.27;;
44078;SDS011;29744;49.078;12.878;2023-04-24T18:06:35;3.30;;;1.30;;
44078;SDS011;29744;49.078;12.878;2023-04-24T18:11:36;3.13;;;1.25;;
44078;SDS011;29744;49.078;12.878;2023-04-24T18:16:36;3.75;;;1.45;;
44078;SDS011;29744;49.078;12.878;2023-04-24T18:21:36;2.90;;;1.20;;
44078;SDS011;29744;49.078;12.878;2023-04-24T18:26:37;3.03;;;1.20;;
44078;SDS011;29744;49.078;12.878;2023-04-24T18:31:37;2.92;;;1.16;;
44078;SDS011;29744;49.078;12.878;2023-04-24T18:36:37;2.95;;;1.20;;
44078;SDS011;29744;49.078;12.878;2023-04-24T18:41:38;2.33;;;1.20;;
44078;SDS011;29744;49.078;12.878;2023-04-24T18:46:38;2.78;;;1.25;;
44078;SDS011;29744;49.078;12.878;2023-04-24T18:51:40;3.35;;;1.35;;
44078;SDS011;29744;49.078;12.878;2023-04-24T18:56:40;3.08;;;1.17;;
44078;SDS011;29744;49.078;12.878;2023-04-24T19:01:40;2.50;;;0.98;;
44078;SDS011;29744;49.078;12.878;2023-04-24T19:06:41;4.20;;;1.27;;
44078;SDS011;29744;49.078;12.878;2023-04-24T19:11:41;2.78;;;1.13;;
44078;SDS011;29744;49.078;12.878;2023-04-24T19:16:42;2.22;;;1.10;;
44078;SDS011;29744;49.078;12.878;2023-04-24T19:21:43;2.75;;;1.23;;
44078;SDS011;29744;49.078;12.878;2023-04-24T19:26:43;2.67;;;1.15;;
44078;SDS011;29744;49.078;12.878;2023-04-24T19:31:44;2.30;;;1.02;;
44078;SDS011;29744;49.078;12.878;2023-04-24T19:36:44;2.40;;;1.02;;
44078;SDS011;29744;49.078;12.878;2023-04-24T19:41:45;2.36;;;1.06;;
44078;SDS011;29744;49.078;12.878;2023-04-24T19:46:45;2.60;;;1.23;;
44078;SDS011;29744;49.078;12.878;2023-04-24T19:51:45;2.53;;;1.17;;
44078;SDS011;29744;49.078;12.878;2023-04-24T19:56:46;2.65;;;1.27;;
44078;SDS011;29744;49.078;12.878;2023-04-24T20:01:46;2.67;;;1.20;;
44078;SDS011;29744;49.078;12.878;2023-04-24T20:06:47;2.10;;;1.13;;
44078;SDS011;29744;49.078;12.878;2023-04-24T20:11:48;3.70;;;1.20;;
44078;SDS011;29744;49.078;12.878;2023-04-24T20:16:50;2.58;;;1.10;;
44078;SDS011;29744;49.078;12.878;2023-04-24T20:21:50;2.42;;;1.08;;
44078;SDS011;29744;49.078;12.878;2023-04-24T20:26:50;1.88;;;0.90;;
44078;SDS011;29744;49.078;12.878;2023-04-24T20:31:51;2.10;;;1.00;;
44078;SDS011;29744;49.078;12.878;2023-04-24T20:36:51;2.92;;;1.25;;
44078;SDS011;29744;49.078;12.878;2023-04-24T20:41:52;2.10;;;0.98;;
44078;SDS011;29744;49.078;12.878;2023-04-24T20:46:52;2.03;;;1.02;;
44078;SDS011;29744;49.078;12.878;2023-04-24T20:51:52;1.73;;;0.90;;
44078;SDS011;29744;49.078;12.878;2023-04-24T20:56:53;3.25;;;1.30;;
44078;SDS011;29744;49.078;12.878;2023-04-24T21:01:53;3.15;;;1.27;;
44078;SDS011;29744;49.078;12.878;2023-04-24T21:06:53;2.55;;;1.20;;
44078;SDS011;29744;49.078;12.878;2023-04-24T21:11:54;2.28;;;0.90;;
44078;SDS011;29744;49.078;12.878;2023-04-24T21:16:54;2.22;;;1.00;;
44078;SDS011;29744;49.078;12.878;2023-04-24T21:21:57;4.15;;;1.10;;
44078;SDS011;29744;49.078;12.878;2023-04-24T21:26:57;1.75;;;0.73;;
44078;SDS011;29744;49.078;12.878;2023-04-24T21:31:57;1.65;;;0.82;;
44078;SDS011;29744;49.078;12.878;2023-04-24T21:36:58;2.22;;;1.00;;
44078;SDS011;29744;49.078;12.878;2023-04-24T21:41:58;1.60;;;0.80;;
44078;SDS011;29744;49.078;12.878;2023-04-24T21:46:58;1.05;;;0.70;;
44078;SDS011;29744;49.078;12.878;2023-04-24T21:51:58;1.75;;;1.00;;
44078;SDS011;29744;49.078;12.878;2023-04-24T21:56:59;2.25;;;0.95;;
44078;SDS011;29744;49.078;12.878;2023-04-24T22:02:01;2.08;;;0.80;;
44078;SDS011;29744;49.078;12.878;2023-04-24T22:07:01;3.47;;;1.00;;
44078;SDS011;29744;49.078;12.878;2023-04-24T22:12:03;1.48;;;0.80;;
44078;SDS011;29744;49.078;12.878;2023-04-24T22:17:03;1.50;;;0.80;;
44078;SDS011;29744;49.078;12.878;2023-04-24T22:22:04;1.58;;;0.70;;
44078;SDS011;29744;49.078;12.878;2023-04-24T22:27:04;1.65;;;0.88;;
44078;SDS011;29744;49.078;12.878;2023-04-24T22:32:05;1.65;;;0.98;;
44078;SDS011;29744;49.078;12.878;2023-04-24T22:37:05;2.38;;;0.98;;
44078;SDS011;29744;49.078;12.878;2023-04-24T22:42:06;1.52;;;0.88;;
44078;SDS011;29744;49.078;12.878;2023-04-24T22:47:07;2.10;;;0.82;;
44078;SDS011;29744;49.078;12.878;2023-04-24T22:52:08;2.20;;;0.70;;
44078;SDS011;29744;49.078;12.878;2023-04-24T22:57:08;2.50;;;0.80;;
44078;SDS011;29744;49.078;12.878;2023-04-24T23:02:09;1.20;;;0.77;;
44078;SDS011;29744;49.078;12.878;2023-04-24T23:07:09;1.40;;;0.70;;
44078;SDS011;29744;49.078;12.878;2023-04-24T23:12:10;1.92;;;0.80;;
44078;SDS011;29744;49.078;12.878;2023-04-24T23:17:10;1.50;;;0.70;;
44078;SDS011;29744;49.078;12.878;2023-04-24T23:22:10;2.00;;;0.90;;
44078;SDS011;29744;49.078;12.878;2023-04-24T23:27:10;1.90;;;0.82;;
44078;SDS011;29744;49.078;12.878;2023-04-24T23:32:11;1.86;;;0.96;;
44078;SDS011;29744;49.078;12.878;2023-04-24T23:37:11;1.55;;;0.80;;
44078;SDS011;29744;49.078;12.878;2023-04-24T23:42:11;1.70;;;0.93;;
44078;SDS011;29744;49.078;12.878;2023-04-24T23:47:12;1.15;;;0.73;;
44078;SDS011;29744;49.078;12.878;2023-04-24T23:52:12;1.58;;;0.80;;
44078;SDS011;29744;49.078;12.878;2023-04-24T23:57:12;1.52;;;0.70;;
